createdAt,value
2022-07-30T00:01:21.836Z,51.85
2022-07-30T00:03:48.288Z,51.24
2022-07-30T00:06:14.707Z,51.54
2022-07-30T00:08:41.070Z,51.82
2022-07-30T00:11:07.450Z,51.71
2022-07-30T00:13:33.811Z,51.61
2022-07-30T00:16:00.182Z,51.56
2022-07-30T00:18:26.560Z,51.32
2022-07-30T00:20:52.916Z,51.26
2022-07-30T00:23:19.273Z,51.04
2022-07-30T00:25:45.627Z,50.81
2022-07-30T00:28:11.990Z,50.76
2022-07-30T00:30:38.372Z,50.67
2022-07-30T00:33:04.771Z,50.45
2022-07-30T00:35:34.562Z,50.57
2022-07-30T00:38:00.934Z,50.53
2022-07-30T00:40:27.299Z,50.26
2022-07-30T00:42:53.679Z,50.14
2022-07-30T00:45:20.044Z,50.13
2022-07-30T00:47:46.394Z,49.89
2022-07-30T00:50:12.755Z,49.64
2022-07-30T00:52:39.121Z,49.64
2022-07-30T00:55:05.490Z,49.80
2022-07-30T00:57:31.860Z,49.66
2022-07-30T00:59:58.221Z,49.73
2022-07-30T01:02:24.609Z,50.12
2022-07-30T01:04:50.984Z,50.00
2022-07-30T01:07:19.132Z,49.47
2022-07-30T01:09:48.481Z,49.59
2022-07-30T01:12:15.027Z,49.73
2022-07-30T01:14:41.406Z,49.27
2022-07-30T01:17:07.763Z,49.28
2022-07-30T01:19:34.146Z,49.12
2022-07-30T01:22:00.506Z,49.05
2022-07-30T01:24:26.879Z,48.82
2022-07-30T01:26:53.242Z,49.04
2022-07-30T01:29:19.599Z,49.06
2022-07-30T01:31:46.013Z,48.96
2022-07-30T01:34:12.396Z,48.67
2022-07-30T01:36:38.748Z,48.67
2022-07-30T01:39:05.144Z,48.38
2022-07-30T01:41:31.505Z,48.46
2022-07-30T01:43:57.872Z,48.43
2022-07-30T01:46:24.261Z,48.16
2022-07-30T01:48:50.736Z,48.51
2022-07-30T01:51:17.143Z,48.39
2022-07-30T01:53:43.508Z,48.45
2022-07-30T01:56:10.771Z,48.15
2022-07-30T01:58:37.754Z,48.18
2022-07-30T02:01:04.217Z,48.05
2022-07-30T02:03:31.770Z,48.04
2022-07-30T02:05:58.193Z,47.77
2022-07-30T02:08:24.554Z,47.71
2022-07-30T02:10:50.909Z,48.12
2022-07-30T02:13:17.278Z,47.68
2022-07-30T02:15:43.651Z,47.69
2022-07-30T02:18:10.040Z,47.62
2022-07-30T02:20:38.439Z,47.66
2022-07-30T02:23:05.555Z,47.65
2022-07-30T02:25:31.930Z,47.41
2022-07-30T02:27:58.302Z,47.54
2022-07-30T02:30:24.665Z,47.27
2022-07-30T02:32:51.023Z,47.48
2022-07-30T02:35:17.382Z,47.13
2022-07-30T02:37:44.459Z,47.79
2022-07-30T02:40:10.934Z,47.59
2022-07-30T02:42:37.293Z,47.49
2022-07-30T02:45:03.658Z,47.61
2022-07-30T02:47:30.021Z,47.33
2022-07-30T02:49:56.404Z,47.02
2022-07-30T02:52:22.764Z,47.05
2022-07-30T02:54:49.130Z,47.08
2022-07-30T02:57:15.482Z,47.41
2022-07-30T02:59:41.843Z,46.77
2022-07-30T03:02:08.277Z,46.85
2022-07-30T03:04:34.834Z,47.15
2022-07-30T03:07:06.228Z,46.59
2022-07-30T03:09:50.960Z,46.86
2022-07-30T03:12:18.667Z,46.85
2022-07-30T03:14:45.028Z,46.83
2022-07-30T03:17:11.398Z,46.96
2022-07-30T03:19:37.761Z,46.75
2022-07-30T03:22:04.117Z,46.87
2022-07-30T03:24:30.519Z,46.99
2022-07-30T03:26:56.921Z,46.72
2022-07-30T03:29:23.325Z,46.63
2022-07-30T03:31:49.766Z,46.30
2022-07-30T03:34:16.201Z,46.45
2022-07-30T03:36:42.642Z,46.87
2022-07-30T03:39:09.017Z,46.42
2022-07-30T03:41:35.377Z,46.38
2022-07-30T03:44:02.297Z,46.48
2022-07-30T03:46:28.692Z,46.31
2022-07-30T03:48:55.125Z,46.31
2022-07-30T03:51:21.505Z,45.89
2022-07-30T03:53:47.856Z,45.69
2022-07-30T03:56:15.072Z,45.56
2022-07-30T03:58:41.450Z,45.87
2022-07-30T04:01:07.824Z,45.87
2022-07-30T04:03:34.235Z,45.57
2022-07-30T04:06:00.630Z,45.82
2022-07-30T04:08:26.997Z,45.80
2022-07-30T04:10:53.364Z,45.36
2022-07-30T04:13:19.728Z,45.25
2022-07-30T04:16:05.714Z,45.20
2022-07-30T04:18:32.437Z,45.29
2022-07-30T04:20:58.800Z,44.61
2022-07-30T04:23:25.147Z,44.14
2022-07-30T04:25:51.514Z,44.21
2022-07-30T04:28:17.882Z,44.20
2022-07-30T04:30:44.233Z,43.80
2022-07-30T04:33:10.597Z,44.69
2022-07-30T04:35:51.114Z,44.43
2022-07-30T04:38:18.506Z,44.01
2022-07-30T04:40:44.863Z,44.08
2022-07-30T04:43:11.220Z,43.95
2022-07-30T04:45:37.593Z,44.36
2022-07-30T04:48:03.944Z,44.66
2022-07-30T04:50:30.300Z,44.13
2022-07-30T04:52:56.672Z,44.03
2022-07-30T04:55:23.047Z,44.21
2022-07-30T04:57:49.408Z,44.48
2022-07-30T05:00:15.774Z,44.53
2022-07-30T05:02:42.130Z,44.43
2022-07-30T05:05:08.569Z,45.07
2022-07-30T05:07:34.955Z,44.57
2022-07-30T05:10:01.320Z,44.46
2022-07-30T05:12:27.672Z,44.55
2022-07-30T05:14:54.042Z,45.70
2022-07-30T05:17:20.408Z,45.76
2022-07-30T05:19:46.778Z,45.83
2022-07-30T05:22:14.728Z,46.29
2022-07-30T05:24:41.093Z,46.50
2022-07-30T05:27:07.465Z,46.73
2022-07-30T05:29:33.839Z,47.01
2022-07-30T05:32:02.763Z,46.87
2022-07-30T05:34:30.060Z,47.17
2022-07-30T05:36:56.421Z,47.58
2022-07-30T05:39:22.796Z,47.55
2022-07-30T05:41:49.179Z,47.61
2022-07-30T05:44:15.544Z,47.56
2022-07-30T05:46:41.956Z,47.69
2022-07-30T05:49:08.431Z,47.90
2022-07-30T05:51:34.835Z,47.49
2022-07-30T05:54:01.209Z,47.71
2022-07-30T05:56:27.569Z,47.22
2022-07-30T05:58:53.933Z,47.64
2022-07-30T06:01:20.325Z,47.54
2022-07-30T06:03:46.714Z,47.68
2022-07-30T06:06:13.075Z,47.87
2022-07-30T06:08:39.428Z,47.52
2022-07-30T06:11:05.790Z,47.85
2022-07-30T06:13:32.166Z,48.05
2022-07-30T06:15:58.599Z,47.90
2022-07-30T06:18:25.002Z,47.67
2022-07-30T06:20:51.364Z,48.09
2022-07-30T06:23:17.721Z,48.07
2022-07-30T06:25:44.090Z,48.12
2022-07-30T06:28:27.855Z,47.79
2022-07-30T06:30:56.808Z,48.16
2022-07-30T06:33:23.193Z,47.72
2022-07-30T06:35:49.552Z,47.92
2022-07-30T06:38:15.925Z,47.87
2022-07-30T06:40:42.297Z,47.99
2022-07-30T06:43:08.673Z,47.92
2022-07-30T06:45:35.047Z,48.12
2022-07-30T06:48:01.417Z,47.81
2022-07-30T06:50:27.895Z,47.92
2022-07-30T06:52:54.310Z,47.65
2022-07-30T06:55:20.673Z,48.02
2022-07-30T06:57:47.032Z,47.90
2022-07-30T07:00:13.394Z,47.80
2022-07-30T07:02:39.748Z,47.92
2022-07-30T07:05:06.113Z,47.86
2022-07-30T07:07:41.902Z,47.93
2022-07-30T07:10:10.753Z,47.77
2022-07-30T07:12:37.136Z,47.83
2022-07-30T07:15:03.503Z,47.88
2022-07-30T07:17:29.875Z,48.04
2022-07-30T07:20:01.647Z,47.75
2022-07-30T07:22:28.810Z,47.80
2022-07-30T07:24:55.188Z,47.95
2022-07-30T07:27:21.535Z,48.05
2022-07-30T07:30:01.891Z,47.92
2022-07-30T07:32:32.207Z,47.90
2022-07-30T07:34:58.568Z,47.69
2022-07-30T07:37:24.930Z,48.08
2022-07-30T07:39:51.299Z,48.03
2022-07-30T07:42:17.657Z,47.92
2022-07-30T07:44:44.007Z,47.95
2022-07-30T07:47:10.370Z,48.08
2022-07-30T07:49:36.747Z,47.90
2022-07-30T07:52:03.110Z,48.25
2022-07-30T07:54:29.477Z,48.06
2022-07-30T07:56:55.834Z,47.90
2022-07-30T07:59:22.192Z,47.92
2022-07-30T08:01:49.977Z,47.60
2022-07-30T08:04:16.397Z,48.18
2022-07-30T08:06:42.751Z,48.16
2022-07-30T08:09:09.549Z,47.85
2022-07-30T08:11:35.909Z,47.75
2022-07-30T08:14:02.271Z,48.58
2022-07-30T08:16:28.716Z,47.80
2022-07-30T08:18:55.112Z,47.94
2022-07-30T08:21:21.463Z,47.87
2022-07-30T08:23:47.825Z,48.26
2022-07-30T08:26:14.199Z,47.90
2022-07-30T08:28:40.548Z,47.77
2022-07-30T08:31:06.906Z,48.16
2022-07-30T08:33:33.661Z,48.02
2022-07-30T08:36:04.159Z,47.78
2022-07-30T08:38:35.722Z,47.63
2022-07-30T08:41:02.081Z,47.89
2022-07-30T08:43:28.455Z,47.90
2022-07-30T08:45:54.820Z,47.47
2022-07-30T08:48:21.185Z,47.77
2022-07-30T08:50:47.545Z,47.92
2022-07-30T08:53:13.918Z,47.53
2022-07-30T08:55:40.289Z,47.88
2022-07-30T08:58:06.637Z,47.78
2022-07-30T09:00:33.015Z,47.52
2022-07-30T09:02:59.380Z,47.59
2022-07-30T09:05:25.736Z,47.78
2022-07-30T09:07:52.083Z,47.49
2022-07-30T09:10:18.543Z,47.49
2022-07-30T09:12:44.934Z,47.76
2022-07-30T09:15:11.288Z,47.62
2022-07-30T09:17:37.643Z,47.54
2022-07-30T09:20:03.994Z,47.78
2022-07-30T09:22:31.422Z,47.75
2022-07-30T09:24:57.804Z,47.55
2022-07-30T09:27:24.155Z,47.75
2022-07-30T09:29:50.518Z,47.86
2022-07-30T09:32:16.880Z,47.71
2022-07-30T09:34:43.242Z,47.58
2022-07-30T09:37:09.595Z,47.77
2022-07-30T09:39:35.958Z,47.86
2022-07-30T09:42:02.617Z,47.76
2022-07-30T09:44:29.294Z,47.53
2022-07-30T09:46:55.670Z,47.46
2022-07-30T09:49:22.097Z,48.00
2022-07-30T09:51:54.559Z,47.89
2022-07-30T09:54:23.527Z,47.55
2022-07-30T09:56:53.656Z,47.71
2022-07-30T09:59:20.510Z,47.85
2022-07-30T10:01:51.075Z,47.74
2022-07-30T10:04:22.743Z,47.56
2022-07-30T10:06:49.104Z,47.59
2022-07-30T10:09:16.427Z,47.72
2022-07-30T10:11:43.324Z,47.76
2022-07-30T10:14:09.682Z,47.65
2022-07-30T10:16:36.050Z,47.57
2022-07-30T10:19:02.411Z,47.48
2022-07-30T10:21:32.476Z,47.64
2022-07-30T10:24:02.297Z,47.56
2022-07-30T10:26:28.650Z,47.63
2022-07-30T10:28:55.539Z,47.59
2022-07-30T10:31:48.889Z,47.52
2022-07-30T10:34:08.282Z,47.60
2022-07-30T10:36:38.020Z,47.82
2022-07-30T10:39:04.394Z,47.71
2022-07-30T10:41:43.164Z,47.60
2022-07-30T10:44:15.765Z,47.65
2022-07-30T10:46:42.250Z,47.80
2022-07-30T10:49:11.753Z,47.69
2022-07-30T10:51:46.508Z,47.49
2022-07-30T10:54:13.060Z,47.62
2022-07-30T10:56:39.419Z,47.73
2022-07-30T10:59:07.904Z,47.82
2022-07-30T11:01:34.466Z,47.74
2022-07-30T11:04:02.981Z,47.44
2022-07-30T11:06:29.449Z,47.39
2022-07-30T11:08:57.128Z,47.35
2022-07-30T11:11:59.518Z,47.49
2022-07-30T11:14:10.135Z,47.58
2022-07-30T11:16:37.019Z,47.44
2022-07-30T11:19:27.478Z,47.72
2022-07-30T11:21:49.886Z,47.91
2022-07-30T11:24:16.249Z,47.78
2022-07-30T11:26:48.554Z,47.50
2022-07-30T11:29:14.910Z,47.51
2022-07-30T11:31:56.922Z,47.64
2022-07-30T11:34:26.089Z,47.40
2022-07-30T11:36:52.528Z,47.44
2022-07-30T11:39:18.916Z,47.88
2022-07-30T11:41:48.259Z,47.81
2022-07-30T11:44:14.617Z,47.69
2022-07-30T11:46:40.975Z,47.61
2022-07-30T11:49:08.845Z,47.82
2022-07-30T11:51:35.355Z,47.72
2022-07-30T11:54:01.722Z,47.85
2022-07-30T11:56:28.283Z,47.72
2022-07-30T11:58:54.642Z,47.54
2022-07-30T12:01:21.008Z,47.57
2022-07-30T12:03:47.363Z,47.28
2022-07-30T12:06:13.732Z,47.59
2022-07-30T12:08:40.122Z,47.45
2022-07-30T12:11:06.479Z,47.72
2022-07-30T12:13:43.819Z,47.57
2022-07-30T12:16:12.260Z,47.61
2022-07-30T12:18:38.620Z,47.56
2022-07-30T12:21:04.997Z,47.48
2022-07-30T12:23:31.344Z,47.76
2022-07-30T12:25:58.126Z,47.43
2022-07-30T12:28:24.555Z,47.66
2022-07-30T12:30:50.916Z,47.62
2022-07-30T12:33:17.281Z,47.31
2022-07-30T12:35:43.646Z,47.36
2022-07-30T12:38:10.001Z,47.55
2022-07-30T12:40:36.372Z,47.47
2022-07-30T12:43:02.736Z,47.71
2022-07-30T12:45:29.096Z,47.56
2022-07-30T12:47:55.469Z,47.72
2022-07-30T12:50:21.827Z,47.52
2022-07-30T12:52:48.375Z,47.36
2022-07-30T12:55:14.746Z,47.23
2022-07-30T12:57:41.104Z,47.66
2022-07-30T13:00:07.460Z,47.28
2022-07-30T13:02:33.829Z,47.65
2022-07-30T13:05:11.467Z,47.28
2022-07-30T13:07:38.371Z,47.47
2022-07-30T13:10:04.745Z,47.58
2022-07-30T13:12:31.110Z,47.37
2022-07-30T13:14:57.516Z,47.33
2022-07-30T13:17:23.874Z,47.41
2022-07-30T13:19:50.266Z,47.62
2022-07-30T13:22:16.621Z,47.61
2022-07-30T13:24:42.980Z,47.40
2022-07-30T13:27:09.353Z,47.53
2022-07-30T13:29:35.724Z,47.19
2022-07-30T13:32:02.075Z,47.47
2022-07-30T13:34:28.466Z,47.63
2022-07-30T13:36:54.845Z,47.42
2022-07-30T13:39:21.200Z,47.07
2022-07-30T13:41:47.556Z,47.42
2022-07-30T13:44:13.913Z,47.29
2022-07-30T13:46:41.441Z,47.75
2022-07-30T13:49:07.985Z,47.35
2022-07-30T13:51:34.413Z,47.40
2022-07-30T13:54:00.776Z,48.34
2022-07-30T13:56:27.150Z,47.79
2022-07-30T13:58:53.840Z,48.03
2022-07-30T14:01:20.248Z,48.21
2022-07-30T14:03:50.111Z,48.11
2022-07-30T14:06:17.317Z,47.79
2022-07-30T14:08:43.676Z,47.92
2022-07-30T14:11:10.049Z,48.11
2022-07-30T14:13:36.410Z,48.02
2022-07-30T14:16:02.756Z,47.99
2022-07-30T14:18:29.120Z,48.33
2022-07-30T14:20:55.480Z,47.59
2022-07-30T14:23:21.835Z,47.90
2022-07-30T14:25:48.193Z,47.71
2022-07-30T14:28:14.559Z,47.91
2022-07-30T14:30:40.917Z,47.81
2022-07-30T14:33:07.276Z,47.99
2022-07-30T14:35:33.624Z,47.58
2022-07-30T14:37:59.997Z,47.70
2022-07-30T14:40:26.363Z,47.79
2022-07-30T14:42:52.713Z,47.53
2022-07-30T14:45:22.636Z,47.51
2022-07-30T14:47:48.995Z,47.79
2022-07-30T14:50:15.346Z,47.57
2022-07-30T14:52:41.696Z,47.62
2022-07-30T14:55:08.709Z,47.66
2022-07-30T14:57:35.072Z,47.59
2022-07-30T15:00:01.464Z,47.91
2022-07-30T15:02:27.831Z,47.48
2022-07-30T15:04:54.199Z,47.75
2022-07-30T15:07:20.572Z,47.92
2022-07-30T15:09:46.987Z,47.69
2022-07-30T15:12:13.352Z,47.59
2022-07-30T15:14:48.108Z,47.39
2022-07-30T15:17:14.516Z,47.53
2022-07-30T15:19:50.324Z,47.71
2022-07-30T15:22:17.656Z,47.61
2022-07-30T15:24:44.025Z,47.28
2022-07-30T15:27:10.385Z,47.45
2022-07-30T15:29:36.735Z,47.95
2022-07-30T15:32:03.332Z,47.44
2022-07-30T15:34:29.786Z,47.61
2022-07-30T15:36:56.143Z,47.64
2022-07-30T15:39:22.919Z,47.86
2022-07-30T15:41:49.271Z,47.62
2022-07-30T15:44:19.512Z,47.98
2022-07-30T15:46:46.439Z,47.87
2022-07-30T15:49:12.869Z,47.83
2022-07-30T15:51:39.268Z,47.88
2022-07-30T15:54:05.637Z,47.56
2022-07-30T15:56:31.998Z,47.64
2022-07-30T15:58:58.369Z,47.84
2022-07-30T16:01:24.798Z,48.00
2022-07-30T16:03:51.219Z,47.65
2022-07-30T16:06:17.586Z,47.83
2022-07-30T16:08:43.963Z,47.88
2022-07-30T16:11:10.960Z,47.69
2022-07-30T16:13:37.555Z,47.51
2022-07-30T16:16:03.955Z,47.62
2022-07-30T16:18:30.335Z,47.54
2022-07-30T16:20:56.680Z,47.47
2022-07-30T16:23:23.050Z,47.67
2022-07-30T16:25:49.400Z,47.82
2022-07-30T16:28:15.774Z,47.75
2022-07-30T16:30:50.997Z,47.67
2022-07-30T16:33:17.517Z,47.66
2022-07-30T16:35:49.026Z,47.70
2022-07-30T16:38:17.702Z,47.78
2022-07-30T16:40:44.062Z,47.80
2022-07-30T16:43:10.442Z,47.95
2022-07-30T16:45:36.812Z,47.33
2022-07-30T16:48:03.173Z,47.83
2022-07-30T16:50:29.534Z,47.56
2022-07-30T16:52:55.892Z,48.04
2022-07-30T16:55:22.273Z,47.41
2022-07-30T16:57:48.638Z,47.51
2022-07-30T17:00:15.000Z,47.59
2022-07-30T17:02:41.376Z,47.66
2022-07-30T17:05:11.937Z,47.37
2022-07-30T17:07:39.985Z,47.81
2022-07-30T17:10:06.352Z,47.88
2022-07-30T17:12:37.508Z,47.75
2022-07-30T17:15:03.868Z,47.73
2022-07-30T17:17:30.230Z,47.81
2022-07-30T17:19:56.587Z,47.58
2022-07-30T17:22:22.944Z,47.64
2022-07-30T17:24:49.296Z,47.79
2022-07-30T17:27:15.661Z,47.53
2022-07-30T17:29:49.970Z,47.56
2022-07-30T17:32:17.094Z,48.38
2022-07-30T17:34:43.450Z,47.99
2022-07-30T17:37:09.812Z,48.08
2022-07-30T17:40:27.149Z,48.03
2022-07-30T17:42:22.513Z,47.95
2022-07-30T17:44:48.875Z,47.63
2022-07-30T17:47:16.480Z,47.67
2022-07-30T17:49:42.992Z,47.74
2022-07-30T17:52:09.374Z,47.97
2022-07-30T17:54:35.738Z,47.64
2022-07-30T17:57:02.094Z,48.23
2022-07-30T17:59:28.473Z,47.99
2022-07-30T18:01:54.828Z,48.15
2022-07-30T18:04:21.198Z,48.16
2022-07-30T18:06:47.562Z,47.88
2022-07-30T18:09:13.912Z,47.72
2022-07-30T18:11:40.269Z,48.38
2022-07-30T18:14:06.632Z,48.20
2022-07-30T18:16:32.993Z,48.27
2022-07-30T18:18:59.363Z,48.06
2022-07-30T18:21:25.728Z,48.40
2022-07-30T18:23:52.097Z,48.14
2022-07-30T18:26:18.470Z,48.10
2022-07-30T18:28:44.838Z,48.05
2022-07-30T18:31:11.191Z,48.46
2022-07-30T18:33:37.576Z,47.99
2022-07-30T18:36:03.919Z,48.16
2022-07-30T18:38:30.295Z,48.33
2022-07-30T18:40:56.667Z,48.59
2022-07-30T18:43:23.036Z,48.52
2022-07-30T18:45:49.410Z,48.37
2022-07-30T18:48:15.765Z,48.44
2022-07-30T18:50:42.123Z,48.69
2022-07-30T18:53:15.648Z,48.46
2022-07-30T18:55:42.337Z,48.38
2022-07-30T18:58:08.703Z,48.45
2022-07-30T19:00:35.782Z,48.77
2022-07-30T19:03:02.277Z,48.50
2022-07-30T19:05:28.650Z,48.28
2022-07-30T19:07:58.351Z,48.50
2022-07-30T19:10:26.287Z,48.62
2022-07-30T19:12:52.876Z,48.50
2022-07-30T19:15:19.250Z,48.53
2022-07-30T19:17:46.809Z,48.81
2022-07-30T19:20:13.340Z,48.31
2022-07-30T19:22:39.708Z,48.69
2022-07-30T19:25:06.088Z,48.64
2022-07-30T19:27:32.466Z,48.31
2022-07-30T19:29:58.823Z,48.77
2022-07-30T19:32:25.188Z,48.65
2022-07-30T19:34:51.559Z,48.45
2022-07-30T19:37:17.934Z,48.37
2022-07-30T19:40:06.432Z,48.49
2022-07-30T19:42:30.687Z,48.58
2022-07-30T19:44:57.065Z,48.81
2022-07-30T19:47:24.619Z,48.54
2022-07-30T19:49:50.989Z,48.60
2022-07-30T19:52:23.645Z,48.75
2022-07-30T19:54:51.632Z,48.83
2022-07-30T19:57:18.010Z,48.29
2022-07-30T19:59:59.424Z,48.66
2022-07-30T20:02:26.722Z,48.11
2022-07-30T20:04:53.093Z,48.64
2022-07-30T20:07:21.100Z,48.39
2022-07-30T20:09:48.580Z,48.60
2022-07-30T20:12:15.561Z,48.70
2022-07-30T20:14:43.746Z,48.66
2022-07-30T20:17:10.133Z,48.38
2022-07-30T20:19:36.883Z,48.67
2022-07-30T20:22:03.252Z,48.47
2022-07-30T20:24:29.631Z,48.70
2022-07-30T20:26:55.998Z,48.66
2022-07-30T20:29:22.362Z,48.81
2022-07-30T20:31:49.822Z,48.88
2022-07-30T20:34:17.930Z,48.65
2022-07-30T20:36:44.608Z,48.66
2022-07-30T20:39:13.379Z,48.65
2022-07-30T20:41:44.617Z,48.37
2022-07-30T20:44:14.888Z,48.35
2022-07-30T20:46:50.098Z,48.22
2022-07-30T20:49:18.694Z,48.50
2022-07-30T20:51:50.467Z,48.26
2022-07-30T20:54:16.856Z,48.39
2022-07-30T20:56:43.650Z,48.49
2022-07-30T20:59:10.024Z,48.22
2022-07-30T21:01:36.390Z,48.62
2022-07-30T21:04:02.873Z,48.65
2022-07-30T21:06:29.587Z,48.56
2022-07-30T21:08:55.948Z,48.72
2022-07-30T21:11:22.975Z,48.36
2022-07-30T21:13:50.042Z,48.15
2022-07-30T21:16:18.269Z,48.55
2022-07-30T21:18:49.253Z,48.31
2022-07-30T21:21:16.778Z,48.35
2022-07-30T21:23:44.064Z,48.46
2022-07-30T21:26:13.733Z,48.39
2022-07-30T21:28:40.372Z,48.38
2022-07-30T21:31:07.233Z,48.42
2022-07-30T21:33:33.827Z,48.36
2022-07-30T21:36:00.885Z,48.29
2022-07-30T21:38:27.247Z,49.02
2022-07-30T21:40:55.013Z,48.57
2022-07-30T21:43:29.464Z,48.33
2022-07-30T21:45:56.152Z,48.43
2022-07-30T21:48:23.873Z,48.60
2022-07-30T21:50:50.262Z,48.74
2022-07-30T21:53:16.790Z,48.31
2022-07-30T21:55:56.402Z,48.69
2022-07-30T21:58:25.960Z,48.67
2022-07-30T22:00:52.905Z,48.71
2022-07-30T22:04:01.641Z,48.22
2022-07-30T22:06:05.596Z,48.03
2022-07-30T22:08:38.861Z,48.73
2022-07-30T22:11:09.007Z,48.42
2022-07-30T22:13:35.539Z,48.92
2022-07-30T22:16:17.830Z,48.36
2022-07-30T22:18:45.391Z,48.42
2022-07-30T22:21:11.763Z,48.62
2022-07-30T22:23:40.933Z,48.45
2022-07-30T22:26:21.376Z,48.00
2022-07-30T22:28:47.742Z,48.55
2022-07-30T22:31:19.036Z,48.49
2022-07-30T22:33:45.522Z,48.64
2022-07-30T22:36:11.881Z,48.30
2022-07-30T22:38:38.433Z,48.48
2022-07-30T22:41:04.793Z,48.54
2022-07-30T22:43:33.285Z,48.71
2022-07-30T22:46:14.683Z,48.75
2022-07-30T22:48:41.183Z,48.34
2022-07-30T22:51:07.577Z,48.39
2022-07-30T22:54:02.617Z,48.43
2022-07-30T22:56:24.770Z,48.30
2022-07-30T22:58:51.229Z,48.11
2022-07-30T23:01:17.629Z,48.20
2022-07-30T23:03:44.019Z,48.33
2022-07-30T23:06:14.671Z,48.51
2022-07-30T23:08:42.546Z,48.27
2022-07-30T23:11:08.911Z,48.17
2022-07-30T23:13:35.268Z,48.23
2022-07-30T23:16:01.642Z,48.16
2022-07-30T23:18:28.017Z,48.63
2022-07-30T23:20:58.525Z,48.61
2022-07-30T23:23:26.725Z,48.29
2022-07-30T23:25:57.182Z,48.40
2022-07-30T23:28:23.528Z,48.41
2022-07-30T23:30:49.888Z,48.24
2022-07-30T23:33:16.239Z,48.42
2022-07-30T23:35:42.609Z,48.49
2022-07-30T23:38:08.972Z,48.51
2022-07-30T23:40:35.329Z,48.39
2022-07-30T23:43:01.696Z,48.05
2022-07-30T23:45:28.054Z,48.17
2022-07-30T23:48:02.682Z,48.61
2022-07-30T23:50:29.399Z,48.43
2022-07-30T23:52:55.789Z,48.27
2022-07-30T23:55:22.169Z,48.36
2022-07-30T23:57:48.530Z,48.09
